sensor_id;sensor_type;location;lat;lon;timestamp;P1;durP1;ratioP1;P2;durP2;ratioP2
4812;SDS011;2420;51.202;8.698;2022-07-05T00:02:03;4.53;;;2.70;;
4812;SDS011;2420;51.202;8.698;2022-07-05T00:04:28;3.42;;;2.72;;
4812;SDS011;2420;51.202;8.698;2022-07-05T00:06:54;4.18;;;2.78;;
4812;SDS011;2420;51.202;8.698;2022-07-05T00:09:38;2.80;;;2.50;;
4812;SDS011;2420;51.202;8.698;2022-07-05T00:12:04;3.15;;;2.70;;
4812;SDS011;2420;51.202;8.698;2022-07-05T00:14:29;3.67;;;2.60;;
4812;SDS011;2420;51.202;8.698;2022-07-05T00:16:55;3.03;;;2.80;;
4812;SDS011;2420;51.202;8.698;2022-07-05T00:19:21;4.40;;;2.80;;
4812;SDS011;2420;51.202;8.698;2022-07-05T00:21:46;5.68;;;3.28;;
4812;SDS011;2420;51.202;8.698;2022-07-05T00:24:12;4.38;;;3.17;;
4812;SDS011;2420;51.202;8.698;2022-07-05T00:26:37;5.28;;;3.40;;
4812;SDS011;2420;51.202;8.698;2022-07-05T00:29:03;3.38;;;3.08;;
4812;SDS011;2420;51.202;8.698;2022-07-05T00:31:29;3.92;;;2.90;;
4812;SDS011;2420;51.202;8.698;2022-07-05T00:33:54;3.88;;;3.58;;
4812;SDS011;2420;51.202;8.698;2022-07-05T00:36:20;3.58;;;3.22;;
4812;SDS011;2420;51.202;8.698;2022-07-05T00:38:45;4.03;;;3.65;;
4812;SDS011;2420;51.202;8.698;2022-07-05T00:41:11;3.90;;;3.47;;
4812;SDS011;2420;51.202;8.698;2022-07-05T00:43:36;5.72;;;3.58;;
4812;SDS011;2420;51.202;8.698;2022-07-05T00:46:02;3.80;;;3.47;;
4812;SDS011;2420;51.202;8.698;2022-07-05T00:48:27;4.50;;;3.65;;
4812;SDS011;2420;51.202;8.698;2022-07-05T00:50:53;4.05;;;3.35;;
4812;SDS011;2420;51.202;8.698;2022-07-05T00:53:19;4.22;;;3.60;;
4812;SDS011;2420;51.202;8.698;2022-07-05T00:55:44;5.05;;;3.28;;
4812;SDS011;2420;51.202;8.698;2022-07-05T00:58:10;4.10;;;3.70;;
4812;SDS011;2420;51.202;8.698;2022-07-05T01:00:37;4.50;;;3.58;;
4812;SDS011;2420;51.202;8.698;2022-07-05T01:03:03;4.53;;;3.55;;
4812;SDS011;2420;51.202;8.698;2022-07-05T01:05:29;4.07;;;3.38;;
4812;SDS011;2420;51.202;8.698;2022-07-05T01:07:57;3.88;;;3.08;;
4812;SDS011;2420;51.202;8.698;2022-07-05T01:10:25;6.30;;;3.70;;
4812;SDS011;2420;51.202;8.698;2022-07-05T01:12:51;5.30;;;3.38;;
4812;SDS011;2420;51.202;8.698;2022-07-05T01:15:17;3.65;;;3.35;;
4812;SDS011;2420;51.202;8.698;2022-07-05T01:17:46;4.30;;;3.60;;
4812;SDS011;2420;51.202;8.698;2022-07-05T01:20:12;3.50;;;3.20;;
4812;SDS011;2420;51.202;8.698;2022-07-05T01:22:48;3.50;;;3.20;;
4812;SDS011;2420;51.202;8.698;2022-07-05T01:25:16;3.83;;;3.50;;
4812;SDS011;2420;51.202;8.698;2022-07-05T01:27:42;3.75;;;3.20;;
4812;SDS011;2420;51.202;8.698;2022-07-05T01:30:07;6.57;;;3.50;;
4812;SDS011;2420;51.202;8.698;2022-07-05T01:32:33;4.00;;;3.65;;
4812;SDS011;2420;51.202;8.698;2022-07-05T01:34:59;6.22;;;3.45;;
4812;SDS011;2420;51.202;8.698;2022-07-05T01:37:25;4.40;;;3.50;;
4812;SDS011;2420;51.202;8.698;2022-07-05T01:39:51;4.15;;;3.72;;
4812;SDS011;2420;51.202;8.698;2022-07-05T01:42:17;3.60;;;3.30;;
4812;SDS011;2420;51.202;8.698;2022-07-05T01:44:43;3.70;;;3.40;;
4812;SDS011;2420;51.202;8.698;2022-07-05T01:47:08;4.47;;;3.60;;
4812;SDS011;2420;51.202;8.698;2022-07-05T01:49:35;5.60;;;3.60;;
4812;SDS011;2420;51.202;8.698;2022-07-05T01:52:07;5.10;;;3.65;;
4812;SDS011;2420;51.202;8.698;2022-07-05T01:54:34;4.88;;;3.70;;
4812;SDS011;2420;51.202;8.698;2022-07-05T01:57:00;4.07;;;3.67;;
4812;SDS011;2420;51.202;8.698;2022-07-05T01:59:27;5.43;;;3.70;;
4812;SDS011;2420;51.202;8.698;2022-07-05T02:01:53;9.20;;;3.58;;
4812;SDS011;2420;51.202;8.698;2022-07-05T02:04:18;6.25;;;3.63;;
4812;SDS011;2420;51.202;8.698;2022-07-05T02:06:45;5.95;;;3.80;;
4812;SDS011;2420;51.202;8.698;2022-07-05T02:09:11;4.35;;;3.95;;
4812;SDS011;2420;51.202;8.698;2022-07-05T02:11:36;4.65;;;3.85;;
4812;SDS011;2420;51.202;8.698;2022-07-05T02:14:02;4.00;;;3.60;;
4812;SDS011;2420;51.202;8.698;2022-07-05T02:16:28;6.78;;;3.83;;
4812;SDS011;2420;51.202;8.698;2022-07-05T02:18:54;3.92;;;3.30;;
4812;SDS011;2420;51.202;8.698;2022-07-05T02:21:20;3.72;;;3.22;;
4812;SDS011;2420;51.202;8.698;2022-07-05T02:23:46;4.50;;;3.50;;
4812;SDS011;2420;51.202;8.698;2022-07-05T02:26:11;4.90;;;3.42;;
4812;SDS011;2420;51.202;8.698;2022-07-05T02:28:37;4.15;;;3.40;;
4812;SDS011;2420;51.202;8.698;2022-07-05T02:31:03;5.32;;;3.70;;
4812;SDS011;2420;51.202;8.698;2022-07-05T02:33:28;4.07;;;3.13;;
4812;SDS011;2420;51.202;8.698;2022-07-05T02:35:54;5.78;;;3.53;;
4812;SDS011;2420;51.202;8.698;2022-07-05T02:38:19;4.53;;;3.50;;
4812;SDS011;2420;51.202;8.698;2022-07-05T02:40:45;4.22;;;3.33;;
4812;SDS011;2420;51.202;8.698;2022-07-05T02:43:10;3.40;;;3.10;;
4812;SDS011;2420;51.202;8.698;2022-07-05T02:45:36;4.55;;;3.33;;
4812;SDS011;2420;51.202;8.698;2022-07-05T02:48:02;5.50;;;3.55;;
4812;SDS011;2420;51.202;8.698;2022-07-05T02:50:27;3.95;;;3.63;;
4812;SDS011;2420;51.202;8.698;2022-07-05T02:52:53;4.25;;;3.30;;
4812;SDS011;2420;51.202;8.698;2022-07-05T02:55:19;3.92;;;3.53;;
4812;SDS011;2420;51.202;8.698;2022-07-05T02:57:44;4.07;;;3.17;;
4812;SDS011;2420;51.202;8.698;2022-07-05T03:00:10;4.53;;;3.33;;
4812;SDS011;2420;51.202;8.698;2022-07-05T03:02:36;3.83;;;3.42;;
4812;SDS011;2420;51.202;8.698;2022-07-05T03:05:01;3.65;;;3.35;;
4812;SDS011;2420;51.202;8.698;2022-07-05T03:07:27;3.70;;;3.38;;
4812;SDS011;2420;51.202;8.698;2022-07-05T03:09:52;4.40;;;3.50;;
4812;SDS011;2420;51.202;8.698;2022-07-05T03:12:18;4.93;;;3.17;;
4812;SDS011;2420;51.202;8.698;2022-07-05T03:14:43;3.58;;;3.28;;
4812;SDS011;2420;51.202;8.698;2022-07-05T03:17:09;4.03;;;3.63;;
4812;SDS011;2420;51.202;8.698;2022-07-05T03:19:34;3.45;;;2.90;;
4812;SDS011;2420;51.202;8.698;2022-07-05T03:22:00;3.97;;;3.28;;
4812;SDS011;2420;51.202;8.698;2022-07-05T03:24:26;4.93;;;3.42;;
4812;SDS011;2420;51.202;8.698;2022-07-05T03:26:51;3.80;;;2.95;;
4812;SDS011;2420;51.202;8.698;2022-07-05T03:29:17;3.30;;;3.00;;
4812;SDS011;2420;51.202;8.698;2022-07-05T03:31:42;4.22;;;3.67;;
4812;SDS011;2420;51.202;8.698;2022-07-05T03:34:08;5.05;;;3.47;;
4812;SDS011;2420;51.202;8.698;2022-07-05T03:36:34;3.97;;;3.15;;
4812;SDS011;2420;51.202;8.698;2022-07-05T03:38:59;3.58;;;3.28;;
4812;SDS011;2420;51.202;8.698;2022-07-05T03:41:25;5.28;;;3.50;;
4812;SDS011;2420;51.202;8.698;2022-07-05T03:43:50;3.75;;;3.35;;
4812;SDS011;2420;51.202;8.698;2022-07-05T03:46:16;6.65;;;3.30;;
4812;SDS011;2420;51.202;8.698;2022-07-05T03:48:41;3.67;;;3.17;;
4812;SDS011;2420;51.202;8.698;2022-07-05T03:51:07;3.75;;;3.17;;
4812;SDS011;2420;51.202;8.698;2022-07-05T03:53:33;4.47;;;3.30;;
4812;SDS011;2420;51.202;8.698;2022-07-05T03:55:58;6.25;;;3.08;;
4812;SDS011;2420;51.202;8.698;2022-07-05T03:58:24;3.65;;;3.00;;
4812;SDS011;2420;51.202;8.698;2022-07-05T04:00:49;3.55;;;3.25;;
4812;SDS011;2420;51.202;8.698;2022-07-05T04:03:15;3.22;;;2.92;;
4812;SDS011;2420;51.202;8.698;2022-07-05T04:05:40;5.15;;;3.03;;
4812;SDS011;2420;51.202;8.698;2022-07-05T04:08:06;3.55;;;3.10;;
4812;SDS011;2420;51.202;8.698;2022-07-05T04:10:32;4.40;;;2.63;;
4812;SDS011;2420;51.202;8.698;2022-07-05T04:12:57;3.38;;;3.08;;
4812;SDS011;2420;51.202;8.698;2022-07-05T04:15:23;3.17;;;2.83;;
4812;SDS011;2420;51.202;8.698;2022-07-05T04:17:49;3.72;;;3.10;;
4812;SDS011;2420;51.202;8.698;2022-07-05T04:20:19;4.28;;;2.78;;
4812;SDS011;2420;51.202;8.698;2022-07-05T04:22:50;2.95;;;2.65;;
4812;SDS011;2420;51.202;8.698;2022-07-05T04:25:16;3.33;;;2.90;;
4812;SDS011;2420;51.202;8.698;2022-07-05T04:27:46;5.03;;;2.75;;
4812;SDS011;2420;51.202;8.698;2022-07-05T04:30:17;3.50;;;2.97;;
4812;SDS011;2420;51.202;8.698;2022-07-05T04:32:44;3.95;;;2.80;;
4812;SDS011;2420;51.202;8.698;2022-07-05T04:35:10;3.80;;;2.97;;
4812;SDS011;2420;51.202;8.698;2022-07-05T04:37:36;4.78;;;2.88;;
4812;SDS011;2420;51.202;8.698;2022-07-05T04:40:05;4.70;;;2.63;;
4812;SDS011;2420;51.202;8.698;2022-07-05T04:42:32;3.90;;;2.53;;
4812;SDS011;2420;51.202;8.698;2022-07-05T04:44:58;3.72;;;3.13;;
4812;SDS011;2420;51.202;8.698;2022-07-05T04:47:24;5.63;;;2.92;;
4812;SDS011;2420;51.202;8.698;2022-07-05T04:49:53;5.55;;;3.20;;
4812;SDS011;2420;51.202;8.698;2022-07-05T04:52:19;3.67;;;3.08;;
4812;SDS011;2420;51.202;8.698;2022-07-05T04:54:44;4.80;;;3.13;;
4812;SDS011;2420;51.202;8.698;2022-07-05T04:57:10;3.20;;;2.90;;
4812;SDS011;2420;51.202;8.698;2022-07-05T04:59:36;3.67;;;3.25;;
4812;SDS011;2420;51.202;8.698;2022-07-05T05:02:01;3.67;;;2.75;;
4812;SDS011;2420;51.202;8.698;2022-07-05T05:04:27;3.97;;;3.63;;
4812;SDS011;2420;51.202;8.698;2022-07-05T05:06:53;5.88;;;3.05;;
4812;SDS011;2420;51.202;8.698;2022-07-05T05:09:18;7.18;;;3.65;;
4812;SDS011;2420;51.202;8.698;2022-07-05T05:11:44;6.88;;;3.83;;
4812;SDS011;2420;51.202;8.698;2022-07-05T05:14:09;4.65;;;3.72;;
4812;SDS011;2420;51.202;8.698;2022-07-05T05:16:35;4.78;;;3.25;;
4812;SDS011;2420;51.202;8.698;2022-07-05T05:19:00;3.80;;;3.22;;
4812;SDS011;2420;51.202;8.698;2022-07-05T05:21:26;4.50;;;3.47;;
4812;SDS011;2420;51.202;8.698;2022-07-05T05:23:51;5.68;;;3.90;;
4812;SDS011;2420;51.202;8.698;2022-07-05T05:26:17;4.40;;;4.00;;
4812;SDS011;2420;51.202;8.698;2022-07-05T05:28:42;4.03;;;3.65;;
4812;SDS011;2420;51.202;8.698;2022-07-05T05:31:09;4.63;;;4.07;;
4812;SDS011;2420;51.202;8.698;2022-07-05T05:33:34;5.03;;;4.10;;
4812;SDS011;2420;51.202;8.698;2022-07-05T05:36:00;4.80;;;4.30;;
4812;SDS011;2420;51.202;8.698;2022-07-05T05:38:26;6.38;;;4.10;;
4812;SDS011;2420;51.202;8.698;2022-07-05T05:40:52;6.03;;;4.35;;
4812;SDS011;2420;51.202;8.698;2022-07-05T05:43:18;4.35;;;4.00;;
4812;SDS011;2420;51.202;8.698;2022-07-05T05:45:43;4.80;;;4.30;;
4812;SDS011;2420;51.202;8.698;2022-07-05T05:48:09;4.97;;;3.72;;
4812;SDS011;2420;51.202;8.698;2022-07-05T05:50:35;4.88;;;3.63;;
4812;SDS011;2420;51.202;8.698;2022-07-05T05:53:03;4.10;;;3.55;;
4812;SDS011;2420;51.202;8.698;2022-07-05T05:55:29;5.28;;;3.58;;
4812;SDS011;2420;51.202;8.698;2022-07-05T05:57:56;4.75;;;3.60;;
4812;SDS011;2420;51.202;8.698;2022-07-05T06:00:35;5.25;;;3.85;;
4812;SDS011;2420;51.202;8.698;2022-07-05T06:03:00;6.13;;;4.60;;
4812;SDS011;2420;51.202;8.698;2022-07-05T06:05:26;4.50;;;4.05;;
4812;SDS011;2420;51.202;8.698;2022-07-05T06:07:54;5.50;;;4.22;;
4812;SDS011;2420;51.202;8.698;2022-07-05T06:10:22;5.07;;;4.30;;
4812;SDS011;2420;51.202;8.698;2022-07-05T06:12:50;7.32;;;4.40;;
4812;SDS011;2420;51.202;8.698;2022-07-05T06:15:17;4.30;;;3.88;;
4812;SDS011;2420;51.202;8.698;2022-07-05T06:17:43;4.40;;;4.00;;
4812;SDS011;2420;51.202;8.698;2022-07-05T06:20:11;4.05;;;3.65;;
4812;SDS011;2420;51.202;8.698;2022-07-05T06:22:41;4.55;;;3.85;;
4812;SDS011;2420;51.202;8.698;2022-07-05T06:25:07;4.60;;;3.50;;
4812;SDS011;2420;51.202;8.698;2022-07-05T06:27:43;4.68;;;3.10;;
4812;SDS011;2420;51.202;8.698;2022-07-05T06:30:10;3.30;;;3.00;;
4812;SDS011;2420;51.202;8.698;2022-07-05T06:32:38;3.95;;;3.03;;
4812;SDS011;2420;51.202;8.698;2022-07-05T06:35:04;3.95;;;2.60;;
4812;SDS011;2420;51.202;8.698;2022-07-05T06:37:47;5.07;;;2.47;;
4812;SDS011;2420;51.202;8.698;2022-07-05T06:40:24;3.13;;;2.08;;
4812;SDS011;2420;51.202;8.698;2022-07-05T06:42:55;4.97;;;2.95;;
4812;SDS011;2420;51.202;8.698;2022-07-05T06:45:23;4.75;;;2.70;;
4812;SDS011;2420;51.202;8.698;2022-07-05T06:47:56;2.53;;;2.30;;
4812;SDS011;2420;51.202;8.698;2022-07-05T06:50:33;3.10;;;2.67;;
4812;SDS011;2420;51.202;8.698;2022-07-05T06:53:01;4.35;;;2.63;;
4812;SDS011;2420;51.202;8.698;2022-07-05T06:55:30;3.45;;;2.30;;
4812;SDS011;2420;51.202;8.698;2022-07-05T06:58:03;3.42;;;2.88;;
4812;SDS011;2420;51.202;8.698;2022-07-05T07:00:33;4.88;;;2.90;;
4812;SDS011;2420;51.202;8.698;2022-07-05T07:02:59;3.88;;;2.60;;
4812;SDS011;2420;51.202;8.698;2022-07-05T07:05:25;6.20;;;2.72;;
4812;SDS011;2420;51.202;8.698;2022-07-05T07:07:50;3.65;;;2.47;;
4812;SDS011;2420;51.202;8.698;2022-07-05T07:10:35;3.30;;;2.58;;
4812;SDS011;2420;51.202;8.698;2022-07-05T07:13:01;2.55;;;2.28;;
4812;SDS011;2420;51.202;8.698;2022-07-05T07:15:27;4.28;;;2.70;;
4812;SDS011;2420;51.202;8.698;2022-07-05T07:17:54;3.28;;;2.75;;
4812;SDS011;2420;51.202;8.698;2022-07-05T07:20:20;4.50;;;2.88;;
4812;SDS011;2420;51.202;8.698;2022-07-05T07:22:46;2.97;;;2.40;;
4812;SDS011;2420;51.202;8.698;2022-07-05T07:25:11;4.38;;;2.72;;
4812;SDS011;2420;51.202;8.698;2022-07-05T07:30:16;3.17;;;2.60;;
4812;SDS011;2420;51.202;8.698;2022-07-05T07:32:44;3.97;;;2.67;;
4812;SDS011;2420;51.202;8.698;2022-07-05T07:35:10;4.22;;;2.38;;
4812;SDS011;2420;51.202;8.698;2022-07-05T07:37:37;3.88;;;2.42;;
4812;SDS011;2420;51.202;8.698;2022-07-05T07:40:03;2.80;;;2.40;;
4812;SDS011;2420;51.202;8.698;2022-07-05T07:42:29;3.97;;;2.25;;
4812;SDS011;2420;51.202;8.698;2022-07-05T07:44:55;4.78;;;2.50;;
4812;SDS011;2420;51.202;8.698;2022-07-05T07:47:21;3.05;;;2.35;;
4812;SDS011;2420;51.202;8.698;2022-07-05T07:49:47;3.25;;;2.42;;
4812;SDS011;2420;51.202;8.698;2022-07-05T07:52:12;3.55;;;2.35;;
4812;SDS011;2420;51.202;8.698;2022-07-05T07:54:38;3.03;;;2.28;;
4812;SDS011;2420;51.202;8.698;2022-07-05T07:57:04;4.20;;;2.53;;
4812;SDS011;2420;51.202;8.698;2022-07-05T07:59:33;2.80;;;2.28;;
4812;SDS011;2420;51.202;8.698;2022-07-05T08:01:59;4.13;;;2.30;;
4812;SDS011;2420;51.202;8.698;2022-07-05T08:04:25;2.95;;;2.20;;
4812;SDS011;2420;51.202;8.698;2022-07-05T08:06:51;4.32;;;2.30;;
4812;SDS011;2420;51.202;8.698;2022-07-05T08:09:16;3.88;;;2.30;;
4812;SDS011;2420;51.202;8.698;2022-07-05T08:11:42;4.80;;;2.50;;
4812;SDS011;2420;51.202;8.698;2022-07-05T08:14:09;3.10;;;2.67;;
4812;SDS011;2420;51.202;8.698;2022-07-05T08:16:34;2.70;;;2.20;;
4812;SDS011;2420;51.202;8.698;2022-07-05T08:19:00;4.38;;;2.88;;
4812;SDS011;2420;51.202;8.698;2022-07-05T08:21:44;6.32;;;3.00;;
4812;SDS011;2420;51.202;8.698;2022-07-05T08:24:10;2.75;;;2.45;;
4812;SDS011;2420;51.202;8.698;2022-07-05T08:26:40;3.38;;;2.92;;
4812;SDS011;2420;51.202;8.698;2022-07-05T08:29:07;5.13;;;2.60;;
4812;SDS011;2420;51.202;8.698;2022-07-05T08:31:35;4.85;;;2.70;;
4812;SDS011;2420;51.202;8.698;2022-07-05T08:34:02;3.72;;;3.20;;
4812;SDS011;2420;51.202;8.698;2022-07-05T08:36:28;4.10;;;2.70;;
4812;SDS011;2420;51.202;8.698;2022-07-05T08:38:54;3.35;;;2.65;;
4812;SDS011;2420;51.202;8.698;2022-07-05T08:41:20;4.70;;;2.20;;
4812;SDS011;2420;51.202;8.698;2022-07-05T08:43:47;2.75;;;2.47;;
4812;SDS011;2420;51.202;8.698;2022-07-05T08:46:13;2.88;;;2.67;;
4812;SDS011;2420;51.202;8.698;2022-07-05T08:48:41;3.30;;;2.40;;
4812;SDS011;2420;51.202;8.698;2022-07-05T08:51:12;3.78;;;3.00;;
4812;SDS011;2420;51.202;8.698;2022-07-05T08:53:39;3.33;;;3.03;;
4812;SDS011;2420;51.202;8.698;2022-07-05T08:56:09;4.25;;;3.08;;
4812;SDS011;2420;51.202;8.698;2022-07-05T08:58:36;4.25;;;3.42;;
4812;SDS011;2420;51.202;8.698;2022-07-05T09:01:02;4.43;;;3.10;;
4812;SDS011;2420;51.202;8.698;2022-07-05T09:03:32;3.00;;;2.70;;
4812;SDS011;2420;51.202;8.698;2022-07-05T09:06:05;4.68;;;2.55;;
4812;SDS011;2420;51.202;8.698;2022-07-05T09:08:34;5.18;;;2.50;;
4812;SDS011;2420;51.202;8.698;2022-07-05T09:11:11;3.58;;;3.15;;
4812;SDS011;2420;51.202;8.698;2022-07-05T09:13:39;4.60;;;2.92;;
4812;SDS011;2420;51.202;8.698;2022-07-05T09:16:12;4.13;;;2.83;;
4812;SDS011;2420;51.202;8.698;2022-07-05T09:18:38;3.90;;;2.92;;
4812;SDS011;2420;51.202;8.698;2022-07-05T09:21:12;3.38;;;2.60;;
4812;SDS011;2420;51.202;8.698;2022-07-05T09:23:39;3.65;;;3.25;;
4812;SDS011;2420;51.202;8.698;2022-07-05T09:26:05;3.67;;;2.92;;
4812;SDS011;2420;51.202;8.698;2022-07-05T09:28:30;4.35;;;2.72;;
4812;SDS011;2420;51.202;8.698;2022-07-05T09:30:56;3.72;;;2.90;;
4812;SDS011;2420;51.202;8.698;2022-07-05T09:33:21;3.55;;;2.75;;
4812;SDS011;2420;51.202;8.698;2022-07-05T09:35:51;8.07;;;3.35;;
4812;SDS011;2420;51.202;8.698;2022-07-05T09:38:24;5.43;;;3.63;;
4812;SDS011;2420;51.202;8.698;2022-07-05T09:40:51;3.17;;;2.80;;
4812;SDS011;2420;51.202;8.698;2022-07-05T09:43:19;4.75;;;2.53;;
4812;SDS011;2420;51.202;8.698;2022-07-05T09:45:52;3.30;;;2.45;;
4812;SDS011;2420;51.202;8.698;2022-07-05T09:48:28;3.38;;;2.58;;
4812;SDS011;2420;51.202;8.698;2022-07-05T09:53:46;3.33;;;2.78;;
4812;SDS011;2420;51.202;8.698;2022-07-05T09:56:14;4.00;;;2.58;;
4812;SDS011;2420;51.202;8.698;2022-07-05T09:58:40;3.13;;;2.45;;
4812;SDS011;2420;51.202;8.698;2022-07-05T10:03:55;2.75;;;2.30;;
4812;SDS011;2420;51.202;8.698;2022-07-05T10:06:28;4.20;;;2.13;;
4812;SDS011;2420;51.202;8.698;2022-07-05T10:08:56;2.80;;;2.20;;
4812;SDS011;2420;51.202;8.698;2022-07-05T10:11:22;2.83;;;2.00;;
4812;SDS011;2420;51.202;8.698;2022-07-05T10:13:52;2.35;;;2.15;;
4812;SDS011;2420;51.202;8.698;2022-07-05T10:16:19;2.67;;;2.10;;
4812;SDS011;2420;51.202;8.698;2022-07-05T10:18:50;2.95;;;2.10;;
4812;SDS011;2420;51.202;8.698;2022-07-05T10:21:17;2.67;;;2.08;;
4812;SDS011;2420;51.202;8.698;2022-07-05T10:23:44;2.58;;;1.80;;
4812;SDS011;2420;51.202;8.698;2022-07-05T10:26:16;3.90;;;2.22;;
4812;SDS011;2420;51.202;8.698;2022-07-05T10:28:45;4.20;;;2.45;;
4812;SDS011;2420;51.202;8.698;2022-07-05T10:31:13;3.25;;;2.47;;
4812;SDS011;2420;51.202;8.698;2022-07-05T10:33:41;3.92;;;3.45;;
4812;SDS011;2420;51.202;8.698;2022-07-05T10:36:07;7.57;;;4.40;;
4812;SDS011;2420;51.202;8.698;2022-07-05T10:38:42;3.25;;;1.90;;
4812;SDS011;2420;51.202;8.698;2022-07-05T10:41:14;2.20;;;1.95;;
4812;SDS011;2420;51.202;8.698;2022-07-05T10:43:43;2.47;;;1.95;;
4812;SDS011;2420;51.202;8.698;2022-07-05T10:46:09;2.50;;;1.88;;
4812;SDS011;2420;51.202;8.698;2022-07-05T10:48:35;4.65;;;1.95;;
4812;SDS011;2420;51.202;8.698;2022-07-05T10:51:01;2.70;;;1.95;;
4812;SDS011;2420;51.202;8.698;2022-07-05T11:03:37;2.83;;;2.03;;
4812;SDS011;2420;51.202;8.698;2022-07-05T11:06:20;2.67;;;1.88;;
4812;SDS011;2420;51.202;8.698;2022-07-05T11:11:24;3.22;;;1.98;;
4812;SDS011;2420;51.202;8.698;2022-07-05T11:13:51;2.70;;;2.00;;
4812;SDS011;2420;51.202;8.698;2022-07-05T11:16:19;2.88;;;2.10;;
4812;SDS011;2420;51.202;8.698;2022-07-05T11:18:50;2.13;;;1.92;;
4812;SDS011;2420;51.202;8.698;2022-07-05T11:21:32;2.25;;;1.80;;
4812;SDS011;2420;51.202;8.698;2022-07-05T11:24:18;2.60;;;2.00;;
4812;SDS011;2420;51.202;8.698;2022-07-05T11:26:52;2.33;;;1.90;;
4812;SDS011;2420;51.202;8.698;2022-07-05T11:34:43;1.85;;;1.73;;
4812;SDS011;2420;51.202;8.698;2022-07-05T11:37:24;2.38;;;1.92;;
4812;SDS011;2420;51.202;8.698;2022-07-05T11:40:25;2.72;;;1.90;;
4812;SDS011;2420;51.202;8.698;2022-07-05T11:42:49;2.00;;;1.90;;
4812;SDS011;2420;51.202;8.698;2022-07-05T11:45:16;2.58;;;2.00;;
4812;SDS011;2420;51.202;8.698;2022-07-05T11:47:42;2.17;;;2.03;;
4812;SDS011;2420;51.202;8.698;2022-07-05T11:50:08;3.17;;;1.90;;
4812;SDS011;2420;51.202;8.698;2022-07-05T11:52:36;2.72;;;2.13;;
4812;SDS011;2420;51.202;8.698;2022-07-05T11:55:04;3.88;;;1.92;;
4812;SDS011;2420;51.202;8.698;2022-07-05T11:57:36;3.65;;;1.90;;
4812;SDS011;2420;51.202;8.698;2022-07-05T12:00:03;2.88;;;1.92;;
4812;SDS011;2420;51.202;8.698;2022-07-05T12:02:29;2.83;;;2.13;;
4812;SDS011;2420;51.202;8.698;2022-07-05T12:04:56;2.15;;;1.83;;
4812;SDS011;2420;51.202;8.698;2022-07-05T12:07:28;2.35;;;1.90;;
4812;SDS011;2420;51.202;8.698;2022-07-05T12:09:58;2.30;;;2.00;;
4812;SDS011;2420;51.202;8.698;2022-07-05T12:12:43;2.00;;;1.80;;
4812;SDS011;2420;51.202;8.698;2022-07-05T12:15:16;2.08;;;1.65;;
4812;SDS011;2420;51.202;8.698;2022-07-05T12:17:43;2.25;;;1.80;;
4812;SDS011;2420;51.202;8.698;2022-07-05T12:20:11;2.30;;;1.90;;
4812;SDS011;2420;51.202;8.698;2022-07-05T12:22:42;1.92;;;1.73;;
4812;SDS011;2420;51.202;8.698;2022-07-05T12:25:10;3.63;;;2.10;;
4812;SDS011;2420;51.202;8.698;2022-07-05T12:27:38;1.88;;;1.70;;
4812;SDS011;2420;51.202;8.698;2022-07-05T12:30:05;2.70;;;2.10;;
4812;SDS011;2420;51.202;8.698;2022-07-05T12:32:34;3.22;;;1.88;;
4812;SDS011;2420;51.202;8.698;2022-07-05T12:35:01;2.15;;;1.95;;
4812;SDS011;2420;51.202;8.698;2022-07-05T12:37:27;2.15;;;1.50;;
4812;SDS011;2420;51.202;8.698;2022-07-05T12:40:04;3.67;;;1.52;;
4812;SDS011;2420;51.202;8.698;2022-07-05T12:42:32;4.03;;;1.70;;
4812;SDS011;2420;51.202;8.698;2022-07-05T12:45:11;2.95;;;1.80;;
4812;SDS011;2420;51.202;8.698;2022-07-05T12:47:51;2.25;;;1.60;;
4812;SDS011;2420;51.202;8.698;2022-07-05T12:50:19;1.90;;;1.65;;
4812;SDS011;2420;51.202;8.698;2022-07-05T12:52:56;2.10;;;1.90;;
4812;SDS011;2420;51.202;8.698;2022-07-05T12:55:33;3.65;;;1.88;;
4812;SDS011;2420;51.202;8.698;2022-07-05T12:58:18;1.77;;;1.60;;
4812;SDS011;2420;51.202;8.698;2022-07-05T13:00:44;1.80;;;1.70;;
4812;SDS011;2420;51.202;8.698;2022-07-05T13:03:09;2.20;;;2.00;;
4812;SDS011;2420;51.202;8.698;2022-07-05T13:05:35;1.75;;;1.60;;
4812;SDS011;2420;51.202;8.698;2022-07-05T13:08:01;3.90;;;1.80;;
4812;SDS011;2420;51.202;8.698;2022-07-05T13:10:27;2.33;;;1.75;;
4812;SDS011;2420;51.202;8.698;2022-07-05T13:12:58;2.20;;;1.70;;
4812;SDS011;2420;51.202;8.698;2022-07-05T13:15:25;2.25;;;1.92;;
4812;SDS011;2420;51.202;8.698;2022-07-05T13:17:50;2.13;;;1.90;;
4812;SDS011;2420;51.202;8.698;2022-07-05T13:20:16;4.40;;;1.92;;
4812;SDS011;2420;51.202;8.698;2022-07-05T13:22:45;2.15;;;1.95;;
4812;SDS011;2420;51.202;8.698;2022-07-05T13:25:11;3.05;;;1.80;;
4812;SDS011;2420;51.202;8.698;2022-07-05T13:27:38;2.30;;;1.70;;
4812;SDS011;2420;51.202;8.698;2022-07-05T13:30:05;2.20;;;1.80;;
4812;SDS011;2420;51.202;8.698;2022-07-05T13:32:31;1.95;;;1.83;;
4812;SDS011;2420;51.202;8.698;2022-07-05T13:34:56;2.40;;;2.20;;
4812;SDS011;2420;51.202;8.698;2022-07-05T13:37:22;3.33;;;1.85;;
4812;SDS011;2420;51.202;8.698;2022-07-05T13:39:48;1.90;;;1.75;;
4812;SDS011;2420;51.202;8.698;2022-07-05T13:42:13;2.33;;;2.00;;
4812;SDS011;2420;51.202;8.698;2022-07-05T13:44:39;2.20;;;2.00;;
4812;SDS011;2420;51.202;8.698;2022-07-05T13:47:04;2.92;;;2.10;;
4812;SDS011;2420;51.202;8.698;2022-07-05T13:49:30;2.13;;;1.90;;
4812;SDS011;2420;51.202;8.698;2022-07-05T13:51:56;2.50;;;2.30;;
4812;SDS011;2420;51.202;8.698;2022-07-05T13:54:23;2.88;;;1.88;;
4812;SDS011;2420;51.202;8.698;2022-07-05T13:56:48;2.47;;;2.10;;
4812;SDS011;2420;51.202;8.698;2022-07-05T13:59:14;3.65;;;2.17;;
4812;SDS011;2420;51.202;8.698;2022-07-05T14:01:39;5.00;;;2.05;;
4812;SDS011;2420;51.202;8.698;2022-07-05T14:04:05;2.35;;;2.15;;
4812;SDS011;2420;51.202;8.698;2022-07-05T14:06:31;6.07;;;2.17;;
4812;SDS011;2420;51.202;8.698;2022-07-05T14:08:57;2.78;;;2.00;;
4812;SDS011;2420;51.202;8.698;2022-07-05T14:11:24;2.38;;;2.00;;
4812;SDS011;2420;51.202;8.698;2022-07-05T14:13:51;2.63;;;2.13;;
4812;SDS011;2420;51.202;8.698;2022-07-05T14:16:17;2.80;;;2.20;;
4812;SDS011;2420;51.202;8.698;2022-07-05T14:18:43;2.20;;;2.00;;
4812;SDS011;2420;51.202;8.698;2022-07-05T14:21:08;2.85;;;2.35;;
4812;SDS011;2420;51.202;8.698;2022-07-05T14:23:39;2.45;;;2.25;;
4812;SDS011;2420;51.202;8.698;2022-07-05T14:26:11;2.70;;;2.28;;
4812;SDS011;2420;51.202;8.698;2022-07-05T14:28:37;2.83;;;2.42;;
4812;SDS011;2420;51.202;8.698;2022-07-05T14:31:03;3.50;;;2.17;;
4812;SDS011;2420;51.202;8.698;2022-07-05T14:33:28;2.80;;;2.50;;
4812;SDS011;2420;51.202;8.698;2022-07-05T14:35:54;2.50;;;2.30;;
4812;SDS011;2420;51.202;8.698;2022-07-05T14:38:19;5.03;;;2.78;;
4812;SDS011;2420;51.202;8.698;2022-07-05T14:40:45;5.43;;;2.80;;
4812;SDS011;2420;51.202;8.698;2022-07-05T14:43:10;3.30;;;2.70;;
4812;SDS011;2420;51.202;8.698;2022-07-05T14:45:36;2.95;;;2.63;;
4812;SDS011;2420;51.202;8.698;2022-07-05T14:48:02;2.88;;;2.65;;
4812;SDS011;2420;51.202;8.698;2022-07-05T14:50:28;2.95;;;2.65;;
4812;SDS011;2420;51.202;8.698;2022-07-05T14:52:54;3.90;;;2.70;;
4812;SDS011;2420;51.202;8.698;2022-07-05T14:55:19;3.70;;;2.80;;
4812;SDS011;2420;51.202;8.698;2022-07-05T14:57:45;3.10;;;2.78;;
4812;SDS011;2420;51.202;8.698;2022-07-05T15:00:11;3.85;;;2.90;;
4812;SDS011;2420;51.202;8.698;2022-07-05T15:02:38;3.67;;;2.80;;
4812;SDS011;2420;51.202;8.698;2022-07-05T15:05:04;3.45;;;2.85;;
4812;SDS011;2420;51.202;8.698;2022-07-05T15:07:35;2.92;;;2.70;;
4812;SDS011;2420;51.202;8.698;2022-07-05T15:10:01;2.95;;;2.67;;
4812;SDS011;2420;51.202;8.698;2022-07-05T15:12:27;4.88;;;2.67;;
4812;SDS011;2420;51.202;8.698;2022-07-05T15:14:52;3.40;;;3.10;;
4812;SDS011;2420;51.202;8.698;2022-07-05T15:17:18;3.55;;;3.25;;
4812;SDS011;2420;51.202;8.698;2022-07-05T15:19:43;3.20;;;2.90;;
4812;SDS011;2420;51.202;8.698;2022-07-05T15:22:09;5.10;;;2.90;;
4812;SDS011;2420;51.202;8.698;2022-07-05T15:24:37;4.78;;;3.60;;
4812;SDS011;2420;51.202;8.698;2022-07-05T15:27:03;4.30;;;3.25;;
4812;SDS011;2420;51.202;8.698;2022-07-05T15:29:30;3.63;;;2.90;;
4812;SDS011;2420;51.202;8.698;2022-07-05T15:31:55;3.20;;;2.90;;
4812;SDS011;2420;51.202;8.698;2022-07-05T15:34:22;3.38;;;3.08;;
4812;SDS011;2420;51.202;8.698;2022-07-05T15:36:48;4.78;;;3.05;;
4812;SDS011;2420;51.202;8.698;2022-07-05T15:39:14;3.60;;;2.75;;
4812;SDS011;2420;51.202;8.698;2022-07-05T15:41:39;3.75;;;2.70;;
4812;SDS011;2420;51.202;8.698;2022-07-05T15:44:05;4.15;;;3.03;;